createdAt,value
2023-02-11T00:00:42.563Z,50.67
2023-02-11T00:03:09.753Z,54.60
2023-02-11T00:05:36.504Z,56.28
2023-02-11T00:08:03.236Z,53.58
2023-02-11T00:10:29.810Z,53.78
2023-02-11T00:12:56.616Z,55.33
2023-02-11T00:15:23.293Z,54.75
2023-02-11T00:17:49.908Z,51.83
2023-02-11T00:20:16.615Z,53.03
2023-02-11T00:22:43.789Z,51.47
2023-02-11T00:25:10.428Z,49.97
2023-02-11T00:27:37.548Z,58.63
2023-02-11T00:30:05.422Z,50.78
2023-02-11T00:32:32.505Z,50.63
2023-02-11T00:34:59.077Z,51.63
2023-02-11T00:37:25.677Z,54.60
2023-02-11T00:39:52.308Z,52.38
2023-02-11T00:42:18.940Z,52.58
2023-02-11T00:44:45.684Z,57.75
2023-02-11T00:47:12.370Z,55.03
2023-02-11T00:49:40.636Z,52.90
2023-02-11T00:52:07.527Z,51.90
2023-02-11T00:54:34.565Z,54.72
2023-02-11T00:57:01.220Z,52.60
2023-02-11T00:59:28.292Z,54.53
2023-02-11T01:01:54.874Z,55.47
2023-02-11T01:04:21.519Z,52.83
2023-02-11T01:06:48.142Z,55.95
2023-02-11T01:09:14.773Z,52.80
2023-02-11T01:11:41.378Z,59.20
2023-02-11T01:14:08.206Z,55.92
2023-02-11T01:16:34.789Z,58.78
2023-02-11T01:19:01.470Z,60.88
2023-02-11T01:21:28.130Z,56.55
2023-02-11T01:23:54.816Z,59.97
2023-02-11T01:26:21.402Z,56.30
2023-02-11T01:28:48.146Z,55.20
2023-02-11T01:31:14.830Z,61.95
2023-02-11T01:33:41.682Z,56.67
2023-02-11T01:36:09.050Z,59.85
2023-02-11T01:38:36.684Z,58.17
2023-02-11T01:41:06.829Z,54.75
2023-02-11T01:43:39.887Z,54.53
2023-02-11T01:46:29.210Z,54.03
2023-02-11T01:49:12.301Z,53.13
2023-02-11T01:51:46.806Z,54.08
2023-02-11T01:54:35.576Z,52.72
2023-02-11T01:57:22.251Z,57.88
2023-02-11T02:00:01.421Z,60.83
2023-02-11T02:02:37.434Z,61.53
2023-02-11T02:05:26.831Z,62.40
2023-02-11T02:08:15.776Z,57.65
2023-02-11T02:10:45.598Z,53.28
2023-02-11T02:13:13.224Z,59.10
2023-02-11T02:16:01.353Z,57.75
2023-02-11T02:18:52.930Z,55.35
2023-02-11T02:21:50.463Z,55.67
2023-02-11T02:24:32.791Z,54.35
2023-02-11T02:27:19.909Z,57.63
2023-02-11T02:29:59.017Z,58.85
2023-02-11T02:33:16.661Z,58.88
2023-02-11T02:35:53.901Z,55.80
2023-02-11T02:38:45.190Z,50.95
2023-02-11T02:41:22.341Z,48.58
2023-02-11T02:43:50.555Z,58.15
2023-02-11T02:46:21.242Z,55.50
2023-02-11T02:48:49.859Z,54.20
2023-02-11T02:51:45.428Z,50.28
2023-02-11T02:54:53.428Z,50.42
2023-02-11T02:57:38.506Z,51.85
2023-02-11T03:00:26.619Z,53.60
2023-02-11T03:03:16.033Z,52.80
2023-02-11T03:06:03.406Z,53.80
2023-02-11T03:08:57.041Z,56.38
2023-02-11T03:11:25.346Z,53.38
2023-02-11T03:13:53.987Z,51.10
2023-02-11T03:16:25.650Z,54.67
2023-02-11T03:19:18.113Z,59.63
2023-02-11T03:21:46.411Z,55.83
2023-02-11T03:24:19.439Z,51.80
2023-02-11T03:26:54.852Z,51.63
2023-02-11T03:29:33.448Z,53.25
2023-02-11T03:32:25.642Z,57.22
2023-02-11T03:35:08.882Z,50.63
2023-02-11T03:37:41.106Z,51.60
2023-02-11T03:40:13.359Z,48.47
2023-02-11T03:42:53.123Z,50.70
2023-02-11T03:45:22.565Z,53.22
2023-02-11T03:47:54.525Z,51.65
2023-02-11T03:50:22.180Z,47.75
2023-02-11T03:52:50.296Z,53.53
2023-02-11T03:55:19.157Z,47.85
2023-02-11T03:57:46.429Z,56.42
2023-02-11T04:00:14.511Z,54.70
2023-02-11T04:02:42.046Z,51.17
2023-02-11T04:05:10.198Z,48.83
2023-02-11T04:07:36.778Z,46.72
2023-02-11T04:10:03.924Z,49.55
2023-02-11T04:12:30.532Z,49.75
2023-02-11T04:14:57.080Z,54.08
2023-02-11T04:17:23.860Z,52.47
2023-02-11T04:19:50.382Z,52.03
2023-02-11T04:22:16.992Z,49.35
2023-02-11T04:24:44.275Z,48.88
2023-02-11T04:27:10.927Z,52.33
2023-02-11T04:29:37.716Z,47.13
2023-02-11T04:32:04.521Z,48.97
2023-02-11T04:34:31.341Z,46.05
2023-02-11T04:36:57.992Z,50.67
2023-02-11T04:39:24.631Z,49.95
2023-02-11T04:41:51.378Z,44.40
2023-02-11T04:44:17.963Z,49.90
2023-02-11T04:46:45.106Z,47.08
2023-02-11T04:49:16.173Z,52.13
2023-02-11T04:51:46.515Z,47.90
2023-02-11T04:54:14.788Z,48.50
2023-02-11T04:56:41.489Z,46.58
2023-02-11T04:59:08.172Z,48.10
2023-02-11T05:01:35.160Z,45.95
2023-02-11T05:04:01.818Z,46.45
2023-02-11T05:06:28.467Z,45.03
2023-02-11T05:08:55.039Z,45.47
2023-02-11T05:11:23.885Z,47.80
2023-02-11T05:13:50.829Z,41.90
2023-02-11T05:16:18.126Z,49.45
2023-02-11T05:18:45.393Z,45.47
2023-02-11T05:21:17.534Z,50.45
2023-02-11T05:23:45.400Z,42.97
2023-02-11T05:26:12.824Z,48.40
2023-02-11T05:28:41.250Z,46.80
2023-02-11T05:31:08.071Z,51.45
2023-02-11T05:33:34.720Z,50.05
2023-02-11T05:36:03.344Z,46.63
2023-02-11T05:38:29.915Z,47.17
2023-02-11T05:40:56.654Z,47.78
2023-02-11T05:43:23.280Z,43.08
2023-02-11T05:45:50.386Z,45.55
2023-02-11T05:48:17.905Z,48.90
2023-02-11T05:50:45.094Z,44.30
2023-02-11T05:53:11.959Z,45.55
2023-02-11T05:55:38.790Z,44.70
2023-02-11T05:58:08.022Z,44.75
2023-02-11T06:00:35.284Z,47.05
2023-02-11T06:03:01.920Z,47.47
2023-02-11T06:05:28.503Z,42.25
2023-02-11T06:07:55.144Z,42.00
2023-02-11T06:10:22.028Z,44.65
2023-02-11T06:12:48.713Z,44.67
2023-02-11T06:15:15.360Z,40.83
2023-02-11T06:17:41.961Z,44.47
2023-02-11T06:20:10.651Z,45.03
2023-02-11T06:22:37.325Z,47.10
2023-02-11T06:25:04.485Z,43.80
2023-02-11T06:27:31.140Z,49.22
2023-02-11T06:29:57.863Z,46.58
2023-02-11T06:32:42.752Z,44.95
2023-02-11T06:35:11.923Z,46.60
2023-02-11T06:37:39.481Z,41.72
2023-02-11T06:40:06.482Z,46.15
2023-02-11T06:42:33.227Z,44.13
2023-02-11T06:45:00.227Z,47.40
2023-02-11T06:47:26.760Z,46.40
2023-02-11T06:49:53.492Z,50.10
2023-02-11T06:52:20.100Z,49.42
2023-02-11T06:54:46.727Z,43.60
2023-02-11T06:57:13.465Z,43.22
2023-02-11T06:59:40.047Z,51.42
2023-02-11T07:02:07.040Z,43.80
2023-02-11T07:04:33.664Z,44.80
2023-02-11T07:07:00.342Z,45.15
2023-02-11T07:09:27.018Z,46.78
2023-02-11T07:11:53.644Z,45.90
2023-02-11T07:14:20.237Z,46.22
2023-02-11T07:16:46.791Z,46.70
2023-02-11T07:19:13.556Z,47.58
2023-02-11T07:21:40.335Z,43.08
2023-02-11T07:24:10.929Z,44.88
2023-02-11T07:26:38.175Z,44.97
2023-02-11T07:29:05.021Z,47.05
2023-02-11T07:31:32.370Z,47.22
2023-02-11T07:34:01.205Z,49.03
2023-02-11T07:36:29.537Z,49.20
2023-02-11T07:38:56.121Z,49.70
2023-02-11T07:41:24.154Z,46.90
2023-02-11T07:43:51.607Z,49.58
2023-02-11T07:46:24.577Z,43.47
2023-02-11T07:48:52.065Z,46.85
2023-02-11T07:51:22.317Z,46.90
2023-02-11T07:53:49.802Z,44.00
2023-02-11T07:56:17.802Z,46.38
2023-02-11T07:58:44.721Z,47.70
2023-02-11T08:01:14.803Z,46.33
2023-02-11T08:03:44.971Z,44.05
2023-02-11T08:06:14.747Z,40.97
2023-02-11T08:08:42.515Z,42.88
2023-02-11T08:11:12.178Z,44.15
2023-02-11T08:13:39.045Z,51.60
2023-02-11T08:16:06.585Z,46.33
2023-02-11T08:18:33.503Z,48.67
2023-02-11T08:21:08.593Z,47.05
2023-02-11T08:23:39.804Z,47.22
2023-02-11T08:26:08.713Z,48.00
2023-02-11T08:28:38.026Z,49.55
2023-02-11T08:31:09.793Z,48.78
2023-02-11T08:33:36.673Z,48.53
2023-02-11T08:36:12.759Z,50.03
2023-02-11T08:38:39.442Z,52.40
2023-02-11T08:41:06.969Z,48.90
2023-02-11T08:43:34.260Z,50.35
2023-02-11T08:46:02.323Z,52.78
2023-02-11T08:48:29.316Z,56.15
2023-02-11T08:50:56.663Z,53.75
2023-02-11T08:53:23.609Z,50.50
2023-02-11T08:55:55.307Z,50.08
2023-02-11T08:58:22.736Z,45.67
2023-02-11T09:00:50.248Z,49.60
2023-02-11T09:03:17.258Z,55.47
2023-02-11T09:05:47.848Z,50.15
2023-02-11T09:08:14.805Z,49.45
2023-02-11T09:10:41.970Z,46.88
2023-02-11T09:13:09.620Z,46.45
2023-02-11T09:15:36.175Z,51.90
2023-02-11T09:18:04.322Z,53.20
2023-02-11T09:20:31.549Z,45.85
2023-02-11T09:22:59.598Z,44.85
2023-02-11T09:25:26.688Z,48.50
2023-02-11T09:27:53.982Z,49.55
2023-02-11T09:30:21.103Z,52.95
2023-02-11T09:32:47.784Z,45.72
2023-02-11T09:35:14.615Z,50.78
2023-02-11T09:37:41.384Z,44.50
2023-02-11T09:40:08.984Z,41.03
2023-02-11T09:42:47.721Z,43.40
2023-02-11T09:45:26.657Z,43.08
2023-02-11T09:47:57.954Z,48.00
2023-02-11T09:50:32.607Z,43.53
2023-02-11T09:53:28.771Z,41.00
2023-02-11T09:55:59.757Z,42.53
2023-02-11T09:58:35.868Z,42.47
2023-02-11T10:01:21.990Z,41.95
2023-02-11T10:04:10.735Z,43.47
2023-02-11T10:06:45.729Z,40.67
2023-02-11T10:09:34.047Z,41.97
2023-02-11T10:12:22.501Z,41.38
2023-02-11T10:15:07.443Z,45.38
2023-02-11T10:18:01.209Z,44.75
2023-02-11T10:20:31.202Z,44.35
2023-02-11T10:23:01.344Z,50.22
2023-02-11T10:25:36.638Z,45.22
2023-02-11T10:28:15.951Z,47.28
2023-02-11T10:30:55.616Z,53.22
2023-02-11T10:33:34.380Z,54.90
2023-02-11T10:36:01.313Z,53.13
2023-02-11T10:38:28.273Z,53.88
2023-02-11T10:40:54.899Z,59.72
2023-02-11T10:43:26.762Z,58.95
2023-02-11T10:45:55.674Z,59.08
2023-02-11T10:48:42.731Z,56.95
2023-02-11T10:51:09.375Z,57.75
2023-02-11T10:53:35.987Z,55.55
2023-02-11T10:56:06.348Z,56.00
2023-02-11T10:58:44.746Z,53.05
2023-02-11T11:01:23.912Z,57.75
2023-02-11T11:03:53.038Z,55.35
2023-02-11T11:06:33.725Z,59.60
2023-02-11T11:09:01.165Z,53.58
2023-02-11T11:11:28.055Z,52.05
2023-02-11T11:14:01.502Z,46.08
2023-02-11T11:16:29.353Z,47.17
2023-02-11T11:19:08.337Z,45.85
2023-02-11T11:21:43.620Z,43.67
2023-02-11T11:24:20.420Z,42.13
2023-02-11T11:27:01.820Z,48.13
2023-02-11T11:29:37.093Z,42.80
2023-02-11T11:32:11.680Z,42.85
2023-02-11T11:34:42.107Z,43.08
2023-02-11T11:37:24.717Z,40.67
2023-02-11T11:39:57.354Z,40.05
2023-02-11T11:42:29.947Z,41.95
2023-02-11T11:45:19.668Z,39.40
2023-02-11T11:48:18.632Z,37.53
2023-02-11T11:50:50.472Z,39.20
2023-02-11T11:53:36.409Z,41.33
2023-02-11T11:56:09.430Z,43.70
2023-02-11T11:58:36.050Z,40.47
2023-02-11T12:01:41.521Z,42.47
2023-02-11T12:04:21.891Z,44.13
2023-02-11T12:07:00.616Z,37.72
2023-02-11T12:09:56.444Z,38.95
2023-02-11T12:12:26.768Z,41.22
2023-02-11T12:15:17.958Z,39.22
2023-02-11T12:17:47.453Z,39.67
2023-02-11T12:20:51.694Z,41.50
2023-02-11T12:23:40.448Z,37.15
2023-02-11T12:26:17.866Z,38.42
2023-02-11T12:32:08.029Z,41.17
2023-02-11T12:34:53.007Z,40.25
2023-02-11T12:37:31.787Z,36.17
2023-02-11T12:40:24.397Z,41.17
2023-02-11T12:43:18.361Z,37.78
2023-02-11T12:46:06.110Z,39.75
2023-02-11T12:48:58.122Z,39.15
2023-02-11T12:51:36.952Z,39.28
2023-02-11T12:54:35.862Z,40.95
2023-02-11T12:57:20.130Z,36.72
2023-02-11T13:00:11.611Z,43.63
2023-02-11T13:03:04.191Z,36.15
2023-02-11T13:05:45.093Z,36.38
2023-02-11T13:08:11.778Z,39.35
2023-02-11T13:10:41.391Z,38.15
2023-02-11T13:13:21.262Z,37.88
2023-02-11T13:16:24.176Z,41.03
2023-02-11T13:19:09.189Z,36.13
2023-02-11T13:21:50.284Z,35.92
2023-02-11T13:24:25.027Z,38.22
2023-02-11T13:27:15.356Z,35.95
2023-02-11T13:30:19.459Z,37.45
2023-02-11T13:32:55.684Z,38.25
2023-02-11T13:35:37.465Z,38.55
2023-02-11T13:38:21.641Z,36.55
2023-02-11T13:41:23.565Z,36.13
2023-02-11T13:44:03.032Z,36.50
2023-02-11T13:46:49.216Z,37.55
2023-02-11T13:49:23.478Z,39.35
2023-02-11T13:51:51.524Z,36.75
2023-02-11T13:54:47.972Z,35.75
2023-02-11T13:57:20.982Z,34.80
2023-02-11T13:59:47.681Z,37.50
2023-02-11T14:02:36.008Z,40.58
2023-02-11T14:05:24.336Z,34.08
2023-02-11T14:08:27.924Z,38.22
2023-02-11T14:11:14.741Z,37.13
2023-02-11T14:13:47.501Z,37.03
2023-02-11T14:16:31.668Z,36.88
2023-02-11T14:19:04.685Z,35.97
2023-02-11T14:21:38.957Z,35.15
2023-02-11T14:24:07.236Z,36.72
2023-02-11T14:26:55.775Z,34.17
2023-02-11T14:29:33.490Z,33.78
2023-02-11T14:32:26.009Z,37.63
2023-02-11T14:35:27.812Z,34.80
2023-02-11T14:38:12.205Z,37.65
2023-02-11T14:40:55.240Z,35.08
2023-02-11T14:43:29.659Z,37.28
2023-02-11T14:45:58.690Z,31.33
2023-02-11T14:48:31.494Z,35.42
2023-02-11T14:51:03.233Z,34.67
2023-02-11T14:53:32.660Z,32.67
2023-02-11T14:55:59.484Z,31.67
2023-02-11T14:58:31.408Z,33.33
2023-02-11T15:01:06.648Z,37.47
2023-02-11T15:03:39.809Z,32.63
2023-02-11T15:06:22.265Z,33.28
2023-02-11T15:08:52.633Z,32.20
2023-02-11T15:11:22.423Z,30.63
2023-02-11T15:13:50.402Z,34.47
2023-02-11T15:16:20.898Z,34.58
2023-02-11T15:18:51.802Z,33.15
2023-02-11T15:21:36.941Z,31.27
2023-02-11T15:24:20.485Z,31.88
2023-02-11T15:27:08.200Z,35.20
2023-02-11T15:29:38.344Z,32.60
2023-02-11T15:32:17.210Z,32.80
2023-02-11T15:34:45.162Z,31.38
2023-02-11T15:37:21.069Z,34.47
2023-02-11T15:39:47.866Z,32.90
2023-02-11T15:42:23.253Z,31.42
2023-02-11T15:45:08.616Z,31.30
2023-02-11T15:47:35.678Z,35.92
2023-02-11T15:50:02.653Z,35.88
2023-02-11T15:52:29.672Z,34.60
2023-02-11T15:55:00.736Z,33.90
2023-02-11T15:57:27.726Z,36.30
2023-02-11T15:59:56.330Z,35.55
2023-02-11T16:02:36.725Z,33.50
2023-02-11T16:05:08.451Z,33.72
2023-02-11T16:07:40.866Z,35.33
2023-02-11T16:10:32.251Z,34.95
2023-02-11T16:13:07.835Z,35.47
2023-02-11T16:15:34.330Z,35.30
2023-02-11T16:18:03.987Z,34.72
2023-02-11T16:20:30.991Z,31.00
2023-02-11T16:22:57.848Z,37.10
2023-02-11T16:25:24.546Z,34.97
2023-02-11T16:27:54.690Z,33.97
2023-02-11T16:30:28.969Z,35.05
2023-02-11T16:32:55.846Z,36.22
2023-02-11T16:35:22.513Z,31.70
2023-02-11T16:37:49.068Z,33.15
2023-02-11T16:40:16.454Z,36.53
2023-02-11T16:42:42.987Z,37.20
2023-02-11T16:45:09.850Z,34.08
2023-02-11T16:47:40.917Z,34.95
2023-02-11T16:50:18.987Z,35.47
2023-02-11T16:52:46.383Z,35.92
2023-02-11T16:55:13.388Z,36.53
2023-02-11T16:57:40.356Z,37.35
2023-02-11T17:00:08.025Z,37.65
2023-02-11T17:02:37.037Z,34.88
2023-02-11T17:05:12.260Z,36.63
2023-02-11T17:07:38.857Z,35.88
2023-02-11T17:10:14.210Z,35.63
2023-02-11T17:12:40.788Z,36.88
2023-02-11T17:15:07.759Z,35.38
2023-02-11T17:17:34.409Z,34.67
2023-02-11T17:20:01.127Z,36.33
2023-02-11T17:22:27.696Z,36.80
2023-02-11T17:24:57.100Z,35.45
2023-02-11T17:27:23.715Z,36.38
2023-02-11T17:29:50.367Z,32.22
2023-02-11T17:32:17.043Z,31.70
2023-02-11T17:34:43.804Z,36.17
2023-02-11T17:37:10.412Z,34.83
2023-02-11T17:39:38.612Z,35.28
2023-02-11T17:42:06.487Z,37.63
2023-02-11T17:44:33.778Z,41.05
2023-02-11T17:47:00.543Z,39.35
2023-02-11T17:49:27.667Z,40.85
2023-02-11T17:51:54.368Z,42.20
2023-02-11T17:54:21.371Z,42.15
2023-02-11T17:56:50.762Z,37.15
2023-02-11T17:59:17.694Z,35.55
2023-02-11T18:01:44.468Z,38.17
2023-02-11T18:04:15.013Z,38.22
2023-02-11T18:06:42.729Z,39.28
2023-02-11T18:09:09.754Z,38.13
2023-02-11T18:11:37.665Z,37.53
2023-02-11T18:14:07.729Z,35.20
2023-02-11T18:16:36.657Z,37.58
2023-02-11T18:19:04.114Z,36.72
2023-02-11T18:21:30.734Z,39.28
2023-02-11T18:23:57.890Z,37.60
2023-02-11T18:26:28.229Z,39.00
2023-02-11T18:28:57.960Z,39.58
2023-02-11T18:31:26.408Z,33.47
2023-02-11T18:33:53.282Z,41.90
2023-02-11T18:36:21.221Z,38.40
2023-02-11T18:38:48.020Z,40.30
2023-02-11T18:41:14.701Z,40.15
2023-02-11T18:43:41.292Z,45.00
2023-02-11T18:46:11.098Z,40.88
2023-02-11T18:48:38.524Z,42.95
2023-02-11T18:51:10.132Z,45.10
2023-02-11T18:53:37.099Z,44.33
2023-02-11T18:56:13.043Z,48.83
2023-02-11T18:58:40.147Z,45.03
2023-02-11T19:01:22.957Z,46.72
2023-02-11T19:03:50.448Z,50.50
2023-02-11T19:06:26.444Z,47.20
2023-02-11T19:08:59.915Z,43.28
2023-02-11T19:11:45.727Z,50.55
2023-02-11T19:14:14.220Z,50.08
2023-02-11T19:16:42.759Z,51.78
2023-02-11T19:19:09.679Z,52.63
2023-02-11T19:21:36.660Z,48.97
2023-02-11T19:24:07.729Z,53.30
2023-02-11T19:26:34.808Z,56.28
2023-02-11T19:29:01.855Z,55.45
2023-02-11T19:31:32.275Z,56.80
2023-02-11T19:33:59.748Z,55.90
2023-02-11T19:36:26.428Z,62.00
2023-02-11T19:38:53.151Z,60.67
2023-02-11T19:41:22.242Z,63.85
2023-02-11T19:43:56.652Z,57.78
2023-02-11T19:46:31.143Z,58.97
2023-02-11T19:49:00.028Z,57.97
2023-02-11T19:51:27.039Z,61.63
2023-02-11T19:53:54.280Z,60.28
2023-02-11T19:56:21.175Z,61.28
2023-02-11T19:58:47.953Z,61.90
2023-02-11T20:01:17.531Z,57.30
2023-02-11T20:03:44.355Z,61.78
2023-02-11T20:06:17.228Z,60.42
2023-02-11T20:08:44.390Z,59.50
2023-02-11T20:11:14.386Z,62.35
2023-02-11T20:13:41.989Z,59.47
2023-02-11T20:16:12.547Z,60.95
2023-02-11T20:18:40.511Z,63.35
2023-02-11T20:21:11.703Z,60.72
2023-02-11T20:23:40.266Z,61.90
2023-02-11T20:26:11.867Z,67.65
2023-02-11T20:28:38.497Z,70.07
2023-02-11T20:31:06.090Z,58.35
2023-02-11T20:33:33.476Z,55.20
2023-02-11T20:36:05.336Z,61.05
2023-02-11T20:38:32.197Z,56.95
2023-02-11T20:41:04.316Z,56.50
2023-02-11T20:43:31.370Z,58.35
2023-02-11T20:46:03.917Z,57.47
2023-02-11T20:48:31.088Z,61.80
2023-02-11T20:51:03.725Z,56.20
2023-02-11T20:53:30.562Z,60.35
2023-02-11T20:56:00.825Z,57.47
2023-02-11T20:58:27.389Z,54.58
2023-02-11T21:00:53.993Z,54.28
2023-02-11T21:03:20.895Z,58.35
2023-02-11T21:05:47.477Z,53.05
2023-02-11T21:08:14.066Z,53.85
2023-02-11T21:10:40.638Z,56.47
2023-02-11T21:13:07.179Z,54.08
2023-02-11T21:15:33.789Z,58.38
2023-02-11T21:18:00.614Z,55.97
2023-02-11T21:20:27.233Z,58.45
2023-02-11T21:22:53.818Z,57.90
2023-02-11T21:25:21.765Z,56.75
2023-02-11T21:27:48.398Z,56.42
2023-02-11T21:30:15.021Z,58.42
2023-02-11T21:32:41.711Z,59.45
2023-02-11T21:35:08.717Z,66.13
2023-02-11T21:37:35.340Z,55.67
2023-02-11T21:40:02.198Z,59.45
2023-02-11T21:42:28.821Z,59.80
2023-02-11T21:44:55.356Z,58.00
2023-02-11T21:47:21.947Z,57.03
2023-02-11T21:49:48.523Z,63.88
2023-02-11T21:52:15.100Z,61.47
2023-02-11T21:54:42.116Z,68.97
2023-02-11T21:57:08.735Z,59.00
2023-02-11T21:59:35.394Z,63.42
2023-02-11T22:02:02.318Z,60.13
2023-02-11T22:04:28.970Z,53.63
2023-02-11T22:06:55.613Z,57.47
2023-02-11T22:09:22.397Z,62.42
2023-02-11T22:11:49.667Z,62.88
2023-02-11T22:14:17.073Z,63.42
2023-02-11T22:16:47.567Z,62.22
2023-02-11T22:19:14.820Z,65.32
2023-02-11T22:21:43.297Z,63.75
2023-02-11T22:24:10.144Z,62.45
2023-02-11T22:26:36.839Z,67.50
2023-02-11T22:29:03.687Z,69.65
2023-02-11T22:31:32.924Z,60.47
2023-02-11T22:34:00.235Z,64.55
2023-02-11T22:36:29.312Z,61.45
2023-02-11T22:38:56.520Z,60.53
2023-02-11T22:41:23.490Z,61.90
2023-02-11T22:43:52.958Z,68.25
2023-02-11T22:46:20.178Z,63.40
2023-02-11T22:48:47.855Z,62.10
2023-02-11T22:51:17.941Z,62.58
2023-02-11T22:53:44.840Z,65.60
2023-02-11T22:56:15.592Z,63.60
2023-02-11T22:58:42.966Z,65.60
2023-02-11T23:01:10.384Z,63.03
2023-02-11T23:03:37.124Z,65.18
2023-02-11T23:06:03.946Z,61.58
2023-02-11T23:08:31.676Z,64.35
2023-02-11T23:11:06.936Z,65.30
2023-02-11T23:13:35.882Z,63.35
2023-02-11T23:16:08.035Z,65.25
2023-02-11T23:18:36.463Z,65.78
2023-02-11T23:21:05.780Z,64.63
2023-02-11T23:23:33.129Z,63.83
2023-02-11T23:26:00.058Z,62.72
2023-02-11T23:28:26.977Z,64.97
2023-02-11T23:30:53.721Z,70.35
2023-02-11T23:33:21.195Z,64.85
2023-02-11T23:35:48.026Z,59.78
2023-02-11T23:38:14.682Z,61.13
2023-02-11T23:40:42.237Z,66.47
2023-02-11T23:43:09.135Z,66.50
2023-02-11T23:45:35.691Z,61.00
2023-02-11T23:48:02.469Z,63.53
2023-02-11T23:50:29.066Z,61.03
2023-02-11T23:52:55.690Z,58.70
2023-02-11T23:55:22.342Z,62.45
2023-02-11T23:57:48.911Z,61.00
